X  Luk Metar data     EHKD De Kooy Airport
Temperatur
19°C Temperatur
14°C Duggpunkt
73% Fugtighed



Vind
10 M/S
22 MPT
35 KM/T
19 KNOB



230°
SV
Nuværende forhold

Overkyet Overkyet
Tryk 1006.77 (hPa) - 29.73 (inHg)
Sigt 6 (mil) - 9.7 (km)
Lufthavn
Lufthavnskode EHKD

Lokation: De Kooy Airport
Afstand: 34 (km)

Metar:
EHKD 160930Z AUTO 23019KT 190V260 9999 OVC250 19/14 Q1007 BLU FM1030 TEMPO 24020G35KT 4000 SHRA SCT015 SCT020CB BKN022

Tid: 16-07-2024 11:30 CEST